Time;durP1;ratioP1;P1;durP2;ratioP2;P2;SDS_P1;SDS_P2;PMS_P1;PMS_P2;Temp;Humidity;BMP_temperature;BMP_pressure;BME280_temperature;BME280_humidity;BME280_pressure;Samples;Min_cycle;Max_cycle;Signal;HPM_P1;HPM_P2
2023/01/27 00:00:32;;;;;;;;;;;;;;;17.42;60.85;97993.72;2070940;28;20104;-50
2023/01/27 00:01:33;;;;;;;19.40;11.57;;;;;;;17.49;60.53;97989.13;2068782;28;19986;-47
2023/01/27 00:02:35;;;;;;;;;;;;;;;17.42;60.59;97986.47;2071020;28;20053;-47
2023/01/27 00:03:36;;;;;;;20.85;11.32;;;;;;;17.49;60.49;97993.66;2069272;28;19952;-49
2023/01/27 00:04:37;;;;;;;18.52;10.57;;;;;;;17.50;60.32;97985.44;2067760;28;20085;-48
2023/01/27 00:05:38;;;;;;;18.23;11.55;;;;;;;17.53;60.26;97987.69;2066854;28;20049;-49
2023/01/27 00:06:40;;;;;;;;;;;;;;;17.46;60.42;97983.38;2069077;28;20124;-48
2023/01/27 00:07:44;;;;;;;;;;;;;;;17.36;60.59;97976.59;2068773;28;21031;-47
2023/01/27 00:08:46;;;;;;;17.13;12.07;;;;;;;17.43;60.56;97984.63;2066387;28;19929;-47
2023/01/27 00:09:46;;;;;;;17.63;10.77;;;;;;;17.49;60.37;97978.41;2069839;28;20115;-48
2023/01/27 00:13:25;;;;;;;;;;;;;;;17.40;60.47;97979.69;2068989;28;20491;-47
2023/01/27 00:13:37;;;;;;;17.60;11.55;;;;;;;17.42;60.69;97985.66;2068557;28;20046;-49
2023/01/27 00:14:38;;;;;;;;;;;;;;;17.34;60.77;97975.16;2069945;28;20045;-47
2023/01/27 00:15:40;;;;;;;17.50;11.43;;;;;;;17.38;60.66;97987.09;2069697;28;19932;-48
2023/01/27 00:16:41;;;;;;;18.85;11.60;;;;;;;17.43;60.30;97976.56;2068252;28;20050;-48
2023/01/27 00:17:43;;;;;;;;;;;;;;;17.35;60.34;97976.81;2071337;28;20057;-50
2023/01/27 00:18:43;;;;;;;19.90;12.02;;;;;;;17.37;60.53;97972.88;2067877;28;19921;-52
2023/01/27 00:19:45;;;;;;;17.13;10.30;;;;;;;17.41;60.38;97965.22;2069376;28;20047;-49
2023/01/27 00:24:46;;;;;;;14.95;9.95;;;;;;;17.37;60.23;97969.38;2068373;28;20128;-48
2023/01/27 00:25:49;;;;;;;15.95;9.68;;;;;;;17.39;60.20;97968.16;2070250;28;20103;-49
2023/01/27 00:26:50;;;;;;;16.08;10.75;;;;;;;17.39;60.14;97967.31;2071670;28;20053;-49
2023/01/27 00:28:22;;;;;;;18.10;10.93;;;;;;;17.39;60.00;97968.16;2070283;28;20107;-47
2023/01/27 00:29:23;;;;;;;21.33;11.18;;;;;;;17.34;60.74;97967.13;2068993;28;20052;-49
2023/01/27 00:30:24;;;;;;;17.73;10.55;;;;;;;17.37;60.28;97972.88;2069376;28;20271;-48
2023/01/27 00:34:08;;;;;;;17.33;10.55;;;;;;;17.28;60.54;97976.03;2071715;28;20049;-49
2023/01/27 00:35:11;;;;;;;20.05;11.85;;;;;;;17.28;60.38;97970.66;2068219;28;20087;-48
2023/01/27 00:36:13;;;;;;;22.40;13.18;;;;;;;17.28;60.35;97963.44;2071025;28;20128;-49
2023/01/27 00:37:14;;;;;;;18.42;10.82;;;;;;;17.31;60.20;97970.25;2069444;28;20049;-47
2023/01/27 00:38:16;;;;;;;18.40;10.85;;;;;;;17.29;60.27;97969.63;2069968;28;20141;-49
2023/01/27 00:39:16;;;;;;;19.08;11.82;;;;;;;17.28;60.29;97963.44;2071201;28;20176;-48
2023/01/27 00:40:18;;;;;;;;;;;;;;;17.17;60.59;97964.09;2072461;28;20090;-47
2023/01/27 00:41:18;;;;;;;15.30;10.50;;;;;;;17.19;60.37;97957.50;2068810;28;19933;-48
2023/01/27 00:42:20;;;;;;;;;;;;;;;17.09;60.51;97965.13;2069404;28;20054;-47
2023/01/27 00:43:20;;;;;;;17.85;10.65;;;;;;;17.13;60.62;97961.03;2070641;28;19951;-47
2023/01/27 00:44:22;;;;;;;;;;;;;;;17.07;60.63;97969.88;2072201;28;20072;-50
2023/01/27 00:46:44;;;;;;;20.50;11.40;;;;;;;17.13;60.50;97961.03;2068973;28;20049;-49
2023/01/27 00:47:47;;;;;;;16.23;11.10;;;;;;;17.17;60.35;97964.91;2070173;28;20143;-47
2023/01/27 00:48:50;;;;;;;14.85;9.30;;;;;;;17.17;60.38;97958.72;2069950;28;20596;-47
2023/01/27 00:49:51;;;;;;;17.58;10.45;;;;;;;17.16;60.22;97963.28;2069493;28;20499;-49
2023/01/27 00:50:53;;;;;;;20.50;10.32;;;;;;;17.16;60.36;97962.44;2071319;28;20128;-48
2023/01/27 00:51:54;;;;;;;16.23;9.75;;;;;;;17.16;60.22;97960.59;2069852;28;20053;-50
2023/01/27 00:52:57;;;;;;;;;;;;;;;17.05;60.57;97968.44;2068658;28;20041;-48
2023/01/27 00:53:58;;;;;;;13.68;9.43;;;;;;;17.07;60.60;97961.84;2071688;28;19994;-49
2023/01/27 00:54:59;;;;;;;;;;;;;;;16.98;60.66;97965.78;2069194;28;20050;-50
2023/01/27 00:56:00;;;;;;;18.45;10.00;;;;;;;17.02;60.61;97960.81;2068085;28;20415;-48
2023/01/27 00:57:03;;;;;;;;;;;;;;;16.95;60.66;97950.13;2070056;28;20057;-49
2023/01/27 00:58:03;;;;;;;16.02;10.38;;;;;;;16.99;60.59;97951.34;2068402;28;19965;-48
2023/01/27 00:59:05;;;;;;;;;;;;;;;16.90;60.79;97966.00;2071522;28;20716;-50
2023/01/27 01:00:08;;;;;;;17.60;10.50;;;;;;;16.96;60.69;97952.56;2070485;28;19999;-49
2023/01/27 01:01:13;;;;;;;19.85;10.75;;;;;;;17.00;60.49;97957.53;2067838;28;20049;-48
2023/01/27 01:02:15;;;;;;;15.13;8.98;;;;;;;17.02;60.36;97950.09;2068592;28;20115;-49
2023/01/27 01:03:16;;;;;;;16.08;10.63;;;;;;;17.02;60.39;97950.09;2070239;28;20053;-47
2023/01/27 01:04:18;;;;;;;14.98;10.38;;;;;;;17.02;60.39;97950.94;2070075;28;20403;-47
2023/01/27 01:05:19;;;;;;;13.43;9.70;;;;;;;17.01;60.38;97948.47;2072386;28;20651;-51
2023/01/27 01:06:20;;;;;;;;;;;;;;;16.91;60.51;97954.25;2071474;28;20096;-49
2023/01/27 01:07:21;;;;;;;17.40;10.13;;;;;;;16.93;60.47;97949.50;2070814;28;19925;-46
2023/01/27 01:08:22;;;;;;;;;;;;;;;16.83;60.79;97946.44;2070558;28;20095;-52
2023/01/27 01:09:23;;;;;;;12.85;9.15;;;;;;;16.87;60.70;97953.03;2069526;28;19925;-51
2023/01/27 01:10:25;;;;;;;;;;;;;;;16.78;60.86;97954.28;2071773;28;20049;-54
2023/01/27 01:11:26;;;;;;;18.95;10.48;;;;;;;16.81;60.86;97943.97;2070795;28;19929;-51
2023/01/27 01:12:28;;;;;;;18.70;10.10;;;;;;;16.87;60.59;97953.03;2070151;28;20049;-53
2023/01/27 01:13:28;;;;;;;18.17;10.73;;;;;;;16.88;60.50;97946.63;2071286;28;20061;-53
2023/01/27 01:14:30;;;;;;;;;;;;;;;16.79;60.82;97945.22;2071907;28;20058;-48
2023/01/27 01:15:34;;;;;;;18.55;10.23;;;;;;;16.81;60.68;97957.38;2071664;28;19948;-50
2023/01/27 01:16:36;;;;;;;16.73;9.30;;;;;;;16.84;60.56;97956.13;2071122;28;20049;-50
2023/01/27 01:17:38;;;;;;;17.25;11.45;;;;;;;16.88;60.36;97951.97;2069389;28;20062;-51
2023/01/27 01:18:39;;;;;;;16.30;9.23;;;;;;;16.86;60.44;97952.22;2070494;28;20077;-52
2023/01/27 01:19:40;;;;;;;15.40;9.65;;;;;;;16.84;60.47;97953.44;2068744;28;20049;-50
2023/01/27 01:20:42;;;;;;;;;;;;;;;16.72;60.66;97948.69;2069788;28;20045;-47
2023/01/27 01:21:43;;;;;;;16.80;9.40;;;;;;;16.73;60.89;97949.50;2071514;28;19925;-49
2023/01/27 01:22:44;;;;;;;;;;;;;;;16.65;60.80;97952.41;2068678;28;20096;-50
2023/01/27 01:23:45;;;;;;;14.70;9.35;;;;;;;16.67;60.96;97958.38;2068957;28;19929;-47
2023/01/27 01:24:47;;;;;;;;;;;;;;;16.59;61.15;97959.41;2071145;28;20041;-48
2023/01/27 01:25:52;;;;;;;16.63;9.32;;;;;;;16.63;60.97;97962.50;2071861;28;19925;-47
2023/01/27 01:26:54;;;;;;;16.40;10.02;;;;;;;16.67;60.87;97959.19;2070178;28;20522;-49
2023/01/27 01:27:54;;;;;;;15.77;9.77;;;;;;;16.69;60.81;97962.50;2070080;28;20058;-48
2023/01/27 01:28:56;;;;;;;;;;;;;;;16.57;60.95;97956.09;2071192;28;20061;-49
2023/01/27 01:29:56;;;;;;;16.95;8.68;;;;;;;16.60;61.05;97955.69;2070048;28;19925;-50
2023/01/27 01:31:03;;;;;;;;;;;;;;;16.50;61.07;97969.50;2070320;28;20112;-49
2023/01/27 01:32:08;;;;;;;12.77;8.90;;;;;;;16.56;61.10;97959.81;2068521;28;19921;-52
2023/01/27 01:33:11;;;;;;;18.38;9.75;;;;;;;16.56;60.91;97951.78;2070350;28;20056;-47
2023/01/27 01:34:12;;;;;;;15.07;9.23;;;;;;;16.58;60.93;97960.44;2070680;28;20096;-46
2023/01/27 01:35:13;;;;;;;;;;;;;;;16.47;61.14;97955.72;2071470;28;20045;-48
2023/01/27 01:36:16;;;;;;;14.13;9.20;;;;;;;16.51;61.10;97956.94;2070402;28;19960;-48
2023/01/27 01:37:17;;;;;;;14.05;8.60;;;;;;;16.53;60.99;97952.22;2067672;28;20045;-48
2023/01/27 01:38:18;;;;;;;16.35;9.25;;;;;;;16.56;60.88;97949.13;2067983;28;20478;-49
2023/01/27 01:39:19;;;;;;;;;;;;;;;16.44;61.18;97953.47;2065853;28;20053;-51
2023/01/27 01:40:20;;;;;;;15.13;9.27;;;;;;;16.45;61.12;97955.91;2066372;28;20651;-49
2023/01/27 01:41:23;;;;;;;15.18;8.73;;;;;;;16.50;60.99;97949.94;2066915;28;20148;-48
2023/01/27 01:42:24;;;;;;;14.07;9.18;;;;;;;16.53;60.87;97945.00;2065382;28;20053;-49
2023/01/27 01:43:26;;;;;;;;;;;;;;;16.39;61.11;97950.56;2068686;28;20049;-49
2023/01/27 01:44:29;;;;;;;16.35;9.60;;;;;;;16.40;61.27;97955.69;2065841;28;19925;-49
2023/01/27 01:45:52;;;;;;;13.50;9.38;;;;;;;16.40;61.10;97952.19;2066474;28;20070;-48
2023/01/27 01:46:53;;;;;;;15.20;9.20;;;;;;;16.41;61.13;97948.50;2061036;28;20049;-51
2023/01/27 01:47:55;;;;;;;17.42;10.27;;;;;;;16.47;60.92;97947.69;2069859;28;20056;-48
2023/01/27 01:49:01;;;;;;;16.70;9.48;;;;;;;16.45;60.92;97955.09;2069292;28;20096;-50
2023/01/27 01:50:02;;;;;;;16.80;9.55;;;;;;;16.42;60.79;97948.28;2066868;28;20068;-50
2023/01/27 01:51:09;;;;;;;15.93;10.82;;;;;;;16.40;60.78;97952.19;2068201;28;20053;-51
2023/01/27 01:52:14;;;;;;;15.70;9.70;;;;;;;16.40;60.89;97946.84;2066998;28;20170;-48
2023/01/27 01:53:17;;;;;;;16.85;10.10;;;;;;;16.37;61.02;97949.94;2069599;28;20175;-49
2023/01/27 01:54:23;;;;;;;19.20;9.23;;;;;;;16.37;60.91;97948.09;2069348;28;20053;-49
2023/01/27 01:55:23;;;;;;;15.90;9.80;;;;;;;16.34;61.09;97953.03;2067497;28;20168;-53
2023/01/27 01:56:27;;;;;;;;;;;;;;;16.23;61.32;97939.22;2067126;28;20050;-53
2023/01/27 01:57:36;;;;;;;14.85;8.90;;;;;;;16.27;61.06;97945.81;2068124;28;20429;-50
2023/01/27 01:58:39;;;;;;;18.55;9.80;;;;;;;16.28;61.24;97952.81;2068336;28;20060;-50
2023/01/27 01:59:43;;;;;;;15.23;8.98;;;;;;;16.31;61.17;97949.72;2068628;28;20108;-49
2023/01/27 02:00:45;;;;;;;12.82;9.23;;;;;;;16.31;61.07;97949.72;2066713;28;20136;-52
2023/01/27 02:01:47;;;;;;;14.57;10.05;;;;;;;16.31;61.12;97946.25;2066971;28;20541;-50
2023/01/27 02:02:50;;;;;;;14.25;9.10;;;;;;;16.30;61.02;97944.59;2068576;28;20380;-49
2023/01/27 02:03:57;;;;;;;16.27;9.30;;;;;;;16.27;61.05;97940.47;2067728;28;20054;-52
2023/01/27 02:05:02;;;;;;;11.30;7.63;;;;;;;16.28;61.08;97942.13;2067112;28;20045;-48
2023/01/27 02:06:05;;;;;;;15.75;9.55;;;;;;;16.24;61.00;97956.94;2070999;28;20091;-51
2023/01/27 02:07:12;;;;;;;14.80;8.52;;;;;;;16.24;60.89;97951.59;2066308;28;20064;-54
2023/01/27 02:08:17;;;;;;;14.48;8.45;;;;;;;16.23;61.10;97941.09;2067403;28;20111;-49
2023/01/27 02:09:20;;;;;;;16.77;9.65;;;;;;;16.22;61.13;97952.81;2070057;28;20119;-48
2023/01/27 02:10:21;;;;;;;15.52;9.43;;;;;;;16.21;61.16;97948.47;2069164;28;21551;-49
2023/01/27 02:11:22;;;;;;;14.52;9.07;;;;;;;16.19;61.08;97946.03;2066242;28;20117;-53
2023/01/27 02:12:24;;;;;;;;;;;;;;;16.06;61.38;97952.19;2067323;28;20053;-48
2023/01/27 02:13:24;;;;;;;15.80;9.18;;;;;;;16.07;61.28;97951.16;2068797;28;19929;-48
2023/01/27 02:14:26;;;;;;;;;;;;;;;15.97;61.54;97948.06;2068255;28;20066;-49
2023/01/27 02:15:27;;;;;;;15.25;8.30;;;;;;;16.07;61.70;97944.97;2066809;28;20020;-54
2023/01/27 02:16:30;;;;;;;14.65;8.70;;;;;;;16.08;61.36;97951.97;2066125;28;20053;-51
2023/01/27 02:17:31;;;;;;;14.63;9.15;;;;;;;16.11;61.29;97945.41;2053667;28;21459;-54
2023/01/27 02:18:32;;;;;;;;;;;;;;;15.95;61.66;97942.06;2062374;28;20064;-49
2023/01/27 02:19:40;;;;;;;;;;;;;;;15.85;61.88;97939.81;2070838;28;19958;-52
2023/01/27 02:20:44;;;;;;;14.13;8.85;;;;;;;15.94;61.65;97936.94;2069425;28;19933;-48
2023/01/27 02:21:47;;;;;;;10.60;7.68;;;;;;;15.99;61.51;97939.81;2068149;28;20057;-48
2023/01/27 02:22:57;;;;;;;14.38;9.13;;;;;;;15.99;61.53;97947.84;2068201;28;20046;-47
2023/01/27 02:24:00;;;;;;;13.75;7.82;;;;;;;15.97;61.44;97942.72;2068454;28;20108;-52
2023/01/27 02:25:11;;;;;;;13.55;7.97;;;;;;;15.98;61.45;97956.91;2070860;28;20666;-49
2023/01/27 02:26:17;;;;;;;13.98;8.88;;;;;;;15.96;61.56;97951.72;2065515;28;21760;-52
2023/01/27 02:27:19;;;;;;;15.20;9.20;;;;;;;15.97;61.56;97947.25;2068631;28;20049;-47
2023/01/27 02:28:20;;;;;;;13.77;8.90;;;;;;;15.98;61.38;97943.53;2068022;28;20103;-51
2023/01/27 02:29:21;;;;;;;;;;;;;;;15.85;61.74;97941.63;2069658;28;20707;-47
2023/01/27 02:30:22;;;;;;;;;;;;;;;15.75;62.10;97943.91;2068065;28;19928;-55
2023/01/27 02:31:24;;;;;;;12.13;8.53;;;;;;;15.79;62.02;97943.25;2069867;28;20143;-50
2023/01/27 02:32:25;;;;;;;15.15;8.70;;;;;;;15.84;61.76;97948.84;2067159;28;20049;-48
2023/01/27 02:33:27;;;;;;;12.30;8.20;;;;;;;15.88;61.49;97949.28;2069516;28;20050;-48
2023/01/27 02:34:34;;;;;;;14.48;8.55;;;;;;;15.89;61.58;97944.75;2067544;28;20488;-52
2023/01/27 02:35:41;;;;;;;13.27;8.38;;;;;;;15.85;61.59;97953.19;2067063;28;20049;-53
2023/01/27 02:36:48;;;;;;;14.25;8.02;;;;;;;15.86;61.51;97951.31;2066075;28;20123;-50
2023/01/27 02:37:51;;;;;;;14.25;7.93;;;;;;;15.81;61.64;97951.91;2070130;28;20053;-48
2023/01/27 02:38:55;;;;;;;13.23;8.52;;;;;;;15.81;61.55;97945.75;2068614;28;20054;-48
2023/01/27 02:40:00;;;;;;;16.08;9.00;;;;;;;15.83;61.64;97955.22;2070807;28;20058;-49
2023/01/27 02:41:08;;;;;;;13.10;9.00;;;;;;;15.81;61.68;97949.25;2067540;28;20053;-51
2023/01/27 02:42:14;;;;;;;15.10;9.40;;;;;;;15.81;61.61;97949.25;2070285;28;20498;-51
2023/01/27 02:43:14;;;;;;;15.15;8.75;;;;;;;15.80;61.46;97950.28;2068393;28;20050;-48
2023/01/27 02:44:16;;;;;;;;;;;;;;;15.68;61.94;97948.34;2070327;28;21195;-48
2023/01/27 02:45:16;;;;;;;12.30;8.10;;;;;;;15.67;61.90;97952.88;2070523;28;19960;-49
2023/01/27 02:46:18;;;;;;;;;;;;;;;15.59;62.02;97953.06;2069193;28;20060;-51
2023/01/27 02:47:18;;;;;;;13.60;8.25;;;;;;;15.63;62.01;97955.13;2069176;28;19925;-50
2023/01/27 02:48:20;;;;;;;;;;;;;;;15.57;62.19;97952.44;2069897;28;20421;-49
2023/01/27 02:49:21;;;;;;;11.07;7.72;;;;;;;15.61;62.21;97953.69;2067372;28;19928;-51
2023/01/27 02:50:22;;;;;;;;;;;;;;;15.54;62.30;97953.66;2069521;28;20049;-50
2023/01/27 02:51:23;;;;;;;9.88;7.20;;;;;;;15.58;62.20;97954.91;2070532;28;19921;-51
2023/01/27 02:52:25;;;;;;;;;;;;;;;15.50;62.27;97952.41;2067348;28;20061;-48
2023/01/27 02:53:25;;;;;;;13.05;8.05;;;;;;;15.57;62.18;97960.44;2068326;28;20154;-48
2023/01/27 02:54:27;;;;;;;;;;;;;;;15.49;62.41;97957.94;2068418;28;20111;-51
2023/01/27 02:55:28;;;;;;;;;;;;;;;15.42;62.45;97949.91;2068114;28;20023;-50
2023/01/27 02:56:29;;;;;;;13.77;7.80;;;;;;;15.50;62.29;97963.09;2070427;28;19921;-49
2023/01/27 02:57:31;;;;;;;11.73;7.85;;;;;;;15.56;62.06;97954.28;2069064;28;20050;-49
2023/01/27 02:58:33;;;;;;;12.45;7.88;;;;;;;15.60;61.89;97962.72;2067978;28;20049;-50
2023/01/27 02:59:34;;;;;;;11.48;8.20;;;;;;;15.58;61.95;97952.25;2066482;28;20472;-51
2023/01/27 03:00:35;;;;;;;;;;;;;;;15.45;62.23;97960.19;2069333;28;20057;-50
2023/01/27 03:01:36;;;;;;;13.32;8.02;;;;;;;15.52;62.16;97960.25;2068693;28;20359;-48
2023/01/27 03:02:37;;;;;;;;;;;;;;;15.43;62.28;97962.25;2071921;28;20054;-51
2023/01/27 03:03:42;;;;;;;13.57;8.20;;;;;;;15.49;62.02;97958.78;2069919;28;20353;-50
2023/01/27 03:04:44;;;;;;;12.43;7.88;;;;;;;15.50;62.20;97955.09;2067323;28;20140;-49
2023/01/27 03:05:45;;;;;;;12.35;8.50;;;;;;;15.54;61.92;97958.19;2069817;28;20103;-52
2023/01/27 03:06:46;;;;;;;;;;;;;;;15.44;62.29;97953.22;2069357;28;20439;-48
2023/01/27 03:07:47;;;;;;;11.15;7.18;;;;;;;15.44;62.17;97958.56;2069708;28;19925;-49
2023/01/27 03:08:48;;;;;;;;;;;;;;;15.36;62.25;97956.88;2070263;28;20049;-49
2023/01/27 03:09:49;;;;;;;11.25;8.13;;;;;;;15.41;62.09;97965.13;2069730;28;19925;-51
2023/01/27 03:10:51;;;;;;;;;;;;;;;15.32;62.41;97963.66;2070546;28;20064;-49
2023/01/27 03:13:13;;;;;;;13.27;7.95;;;;;;;15.44;61.98;97955.91;2069465;28;20634;-47
2023/01/27 03:14:13;;;;;;;13.85;8.10;;;;;;;15.46;62.13;97961.03;2069731;28;20713;-48
2023/01/27 03:18:14;;;;;;;12.75;7.00;;;;;;;15.39;62.14;97961.81;2070825;28;20839;-47
2023/01/27 03:19:15;;;;;;;14.35;8.60;;;;;;;15.41;62.22;97954.44;2071622;28;22097;-50
2023/01/27 03:20:17;;;;;;;;;;;;;;;15.30;62.28;97957.69;2069590;28;20061;-49
2023/01/27 03:21:19;;;;;;;;;;;;;;;15.23;62.57;97961.34;2069438;28;19975;-52
2023/01/27 03:22:19;;;;;;;12.80;8.55;;;;;;;15.28;62.47;97958.91;2070878;28;19925;-54
2023/01/27 03:23:21;;;;;;;;;;;;;;;15.18;62.63;97964.59;2061982;28;20096;-51
2023/01/27 03:24:22;;;;;;;12.38;7.63;;;;;;;15.27;62.56;97959.94;2065930;28;19921;-51
2023/01/27 03:25:23;;;;;;;;;;;;;;;15.21;62.52;97956.22;2070417;28;20096;-50
2023/01/27 03:26:24;;;;;;;10.80;6.78;;;;;;;15.24;62.39;97961.16;2071027;28;19925;-51
2023/01/27 03:27:25;;;;;;;;;;;;;;;15.17;62.65;97961.09;2070975;28;20091;-50
2023/01/27 03:28:27;;;;;;;12.50;7.55;;;;;;;15.24;62.45;97960.31;2069859;28;19929;-51
2023/01/27 03:30:50;;;;;;;11.15;7.97;;;;;;;15.26;62.26;97948.41;2066040;28;20176;-50
2023/01/27 03:31:50;;;;;;;10.98;7.20;;;;;;;15.29;62.01;97955.19;2069166;28;20094;-50
2023/01/27 03:32:52;;;;;;;;;;;;;;;15.16;62.43;97950.63;2072454;28;20104;-48
2023/01/27 03:33:53;;;;;;;10.85;6.85;;;;;;;15.20;62.55;97946.53;2064055;28;19922;-49
2023/01/27 03:34:56;;;;;;;;;;;;;;;15.08;62.75;97943.59;2069847;28;20068;-47
2023/01/27 03:46:36;;;;;;;11.35;6.90;;;;;;;15.13;62.36;97943.00;2069423;28;20049;-50
2023/01/27 03:47:37;;;;;;;9.10;6.15;;;;;;;15.15;62.42;97944.44;2069201;28;20107;-48
2023/01/27 03:48:38;;;;;;;;;;;;;;;15.03;62.64;97938.00;2069770;28;20103;-48
2023/01/27 03:49:39;;;;;;;8.82;6.30;;;;;;;15.08;62.64;97940.09;2071647;28;19928;-51
2023/01/27 03:50:42;;;;;;;;;;;;;;;15.01;62.67;97939.22;2069946;28;20049;-49
2023/01/27 03:51:43;;;;;;;11.90;6.85;;;;;;;15.07;62.51;97947.31;2071836;28;19969;-47
2023/01/27 03:53:01;;;;;;;11.63;6.82;;;;;;;15.10;62.41;97940.72;2067425;28;20103;-53
2023/01/27 03:54:03;;;;;;;12.75;7.55;;;;;;;15.09;62.28;97947.09;2069057;28;20046;-47
2023/01/27 03:55:05;;;;;;;13.50;7.82;;;;;;;15.08;62.30;97938.25;2070249;28;20589;-51
2023/01/27 03:56:08;;;;;;;10.25;6.47;;;;;;;15.13;62.27;97932.34;2068857;28;20046;-51
2023/01/27 03:57:08;;;;;;;11.98;6.93;;;;;;;15.12;62.18;97941.34;2072529;28;20099;-47
2023/01/27 03:58:18;;;;;;;;;;;;;;;15.03;62.38;97938.00;2067914;28;20114;-47
2023/01/27 03:59:21;;;;;;;13.73;7.93;;;;;;;15.05;62.27;97940.50;2071127;28;20021;-49
2023/01/27 04:00:22;;;;;;;9.75;7.07;;;;;;;15.07;62.26;97944.63;2069893;28;20049;-50
2023/01/27 04:01:24;;;;;;;;;;;;;;;14.96;62.44;97935.31;2070513;28;20203;-49
2023/01/27 04:07:46;;;;;;;10.50;6.70;;;;;;;14.97;62.55;97939.63;2068499;28;20612;-50
2023/01/27 04:08:47;;;;;;;12.02;6.88;;;;;;;15.00;62.34;97941.09;2070418;28;20057;-51
2023/01/27 04:09:49;;;;;;;;;;;;;;;14.83;62.86;97932.56;2072398;28;20053;-50
2023/01/27 04:11:53;;;;;;;12.27;6.70;;;;;;;14.92;62.65;97933.22;2068980;28;19925;-50
2023/01/27 04:12:12;;;;;;;9.82;6.65;;;;;;;14.92;62.52;97933.22;2069480;28;20164;-47
2023/01/27 04:13:13;;;;;;;;;;;;;;;14.83;62.73;97939.75;2065331;28;20065;-47
2023/01/27 04:14:14;;;;;;;9.50;5.93;;;;;;;14.90;62.64;97938.75;2068394;28;19926;-49
2023/01/27 04:15:17;;;;;;;10.60;7.13;;;;;;;14.95;62.46;97930.16;2069690;28;20172;-48
2023/01/27 04:16:19;;;;;;;9.65;6.68;;;;;;;14.95;62.52;97941.66;2071767;28;20099;-49
2023/01/27 04:17:20;;;;;;;11.38;7.05;;;;;;;14.95;62.42;97940.84;2072235;28;21694;-48
2023/01/27 04:18:21;;;;;;;10.02;6.93;;;;;;;14.96;62.26;97938.00;2070462;28;20692;-52
2023/01/27 04:19:22;;;;;;;;;;;;;;;14.84;62.57;97934.22;2071755;28;20096;-49
2023/01/27 04:20:23;;;;;;;9.73;6.07;;;;;;;14.89;62.49;97944.31;2069687;28;19933;-52
2023/01/27 04:21:25;;;;;;;;;;;;;;;14.78;62.67;97936.84;2069584;28;20057;-47
2023/01/27 04:22:27;;;;;;;7.60;5.53;;;;;;;14.83;62.74;97940.56;2068885;28;19929;-53
2023/01/27 04:23:27;;;;;;;8.85;5.75;;;;;;;14.88;62.49;97946.16;2070548;28;20061;-51
2023/01/27 04:24:29;;;;;;;;;;;;;;;14.77;62.79;97945.88;2073504;28;20594;-53
2023/01/27 04:25:30;;;;;;;9.18;6.13;;;;;;;14.80;62.56;97938.31;2071937;28;20391;-49
2023/01/27 04:26:33;;;;;;;;;;;;;;;14.72;62.98;97946.47;2070406;28;20112;-46
2023/01/27 04:27:35;;;;;;;8.02;5.68;;;;;;;14.79;62.87;97943.81;2072095;28;19925;-51
2023/01/27 04:28:36;;;;;;;11.80;6.78;;;;;;;14.84;62.60;97942.22;2069421;28;20060;-51
2023/01/27 04:29:40;;;;;;;;;;;;;;;14.75;62.74;97946.88;2070996;28;20053;-52
2023/01/27 04:30:42;;;;;;;8.70;6.30;;;;;;;14.79;62.72;97949.16;2069764;28;20012;-49
2023/01/27 04:31:43;;;;;;;9.02;6.25;;;;;;;14.83;62.70;97953.94;2068437;28;20057;-52
2023/01/27 04:32:44;;;;;;;10.13;6.07;;;;;;;14.87;62.52;97951.69;2069391;28;20107;-49
2023/01/27 04:33:45;;;;;;;;;;;;;;;14.73;62.55;97958.78;2072078;28;20127;-49
2023/01/27 04:34:47;;;;;;;11.75;6.93;;;;;;;14.76;62.81;97950.38;2071312;28;19925;-50
2023/01/27 04:35:50;;;;;;;9.13;5.95;;;;;;;14.82;62.55;97943.44;2069930;28;20050;-52
2023/01/27 04:36:52;;;;;;;10.68;7.25;;;;;;;14.83;62.34;97950.44;2068233;28;20046;-50
2023/01/27 04:37:52;;;;;;;7.63;5.97;;;;;;;14.83;62.43;97953.09;2070447;28;20045;-46
2023/01/27 04:38:54;;;;;;;;;;;;;;;14.69;62.74;97953.00;2071931;28;20132;-49
2023/01/27 04:39:54;;;;;;;9.82;5.88;;;;;;;14.72;62.69;97949.13;2069598;28;19925;-48
2023/01/27 04:40:56;;;;;;;;;;;;;;;14.63;62.81;97952.97;2068862;28;20115;-47
2023/01/27 04:41:57;;;;;;;10.38;6.63;;;;;;;14.69;62.66;97949.53;2069461;28;19925;-48
2023/01/27 04:42:58;;;;;;;;;;;;;;;14.61;62.77;97953.16;2068167;28;20842;-51
2023/01/27 04:43:59;;;;;;;;;;;;;;;14.55;63.11;97958.47;2071840;28;19932;-47
2023/01/27 04:45:01;;;;;;;7.82;6.43;;;;;;;14.62;62.91;97952.13;2068745;28;20615;-49
2023/01/27 04:46:03;;;;;;;9.07;6.63;;;;;;;14.70;62.75;97951.16;2070286;28;20053;-48
2023/01/27 04:47:05;;;;;;;8.93;6.22;;;;;;;14.74;62.52;97949.78;2069963;28;20073;-47
2023/01/27 04:48:06;;;;;;;10.02;5.97;;;;;;;14.77;62.51;97952.03;2068375;28;20590;-47
2023/01/27 04:49:08;;;;;;;7.43;5.53;;;;;;;14.75;62.38;97952.22;2069396;28;20081;-49
2023/01/27 04:50:11;;;;;;;7.85;6.28;;;;;;;14.74;62.32;97958.59;2071374;28;20134;-47
2023/01/27 04:51:12;;;;;;;9.20;5.97;;;;;;;14.72;62.53;97955.28;2067861;28;20049;-47
2023/01/27 04:52:14;;;;;;;7.75;6.05;;;;;;;14.73;62.38;97964.13;2069874;28;20049;-50
2023/01/27 04:53:14;;;;;;;9.15;5.72;;;;;;;14.72;62.42;97960.63;2069429;28;20050;-47
2023/01/27 04:54:16;;;;;;;;;;;;;;;14.60;62.61;97966.69;2070084;28;20045;-48
2023/01/27 04:55:16;;;;;;;11.48;7.00;;;;;;;14.65;62.57;97961.59;2068865;28;19929;-48
2023/01/27 04:56:21;;;;;;;;;;;;;;;14.55;62.80;97958.47;2071020;28;20119;-47
2023/01/27 04:57:22;;;;;;;8.60;6.18;;;;;;;14.62;62.84;97964.66;2068428;28;20411;-53
2023/01/27 04:58:24;;;;;;;;;;;;;;;14.50;63.11;97951.81;2068755;28;20588;-47
2023/01/27 04:59:24;;;;;;;8.65;5.22;;;;;;;14.55;62.87;97963.78;2068501;28;19925;-47
2023/01/27 05:00:26;;;;;;;;;;;;;;;14.50;63.01;97964.34;2069308;28;20503;-47
2023/01/27 05:01:28;;;;;;;8.25;5.22;;;;;;;14.57;62.79;97967.91;2070406;28;19994;-47
2023/01/27 05:02:30;;;;;;;11.10;6.85;;;;;;;14.61;62.58;97965.69;2069430;28;20077;-47
2023/01/27 05:03:31;;;;;;;9.20;5.72;;;;;;;14.63;62.57;97956.47;2068820;28;20486;-49
2023/01/27 05:04:32;;;;;;;;;;;;;;;14.55;62.75;97964.63;2072157;28;20056;-48
2023/01/27 05:05:33;;;;;;;9.00;5.93;;;;;;;14.56;62.90;97962.75;2068634;28;20454;-48
2023/01/27 05:06:35;;;;;;;9.82;6.43;;;;;;;14.61;62.71;97971.03;2071141;28;20408;-47
2023/01/27 05:07:37;;;;;;;8.82;6.38;;;;;;;14.64;62.56;97966.09;2070169;28;20098;-48
2023/01/27 05:08:39;;;;;;;9.18;5.93;;;;;;;14.65;62.44;97967.75;2068569;28;20058;-49
2023/01/27 05:09:40;;;;;;;8.55;6.15;;;;;;;14.64;62.47;97967.97;2071309;28;20077;-48
2023/01/27 05:10:42;;;;;;;;;;;;;;;14.52;62.62;97965.81;2070913;28;20080;-47
2023/01/27 05:11:43;;;;;;;10.38;6.18;;;;;;;14.53;62.64;97962.13;2067947;28;19933;-50
2023/01/27 05:12:45;;;;;;;;;;;;;;;14.43;62.82;97964.28;2070286;28;20050;-48
2023/01/27 05:13:46;;;;;;;11.25;6.35;;;;;;;14.50;62.82;97972.34;2068623;28;19929;-48
2023/01/27 05:14:47;;;;;;;;;;;;;;;14.41;62.89;97966.31;2069116;28;20049;-49
2023/01/27 05:15:48;;;;;;;6.32;5.13;;;;;;;14.46;63.10;97963.91;2070736;28;19921;-48
2023/01/27 05:16:50;;;;;;;;;;;;;;;14.36;63.05;97975.91;2068683;28;20116;-48
2023/01/27 05:17:51;;;;;;;8.98;5.15;;;;;;;14.45;63.00;97972.91;2069215;28;19959;-49
2023/01/27 05:18:53;;;;;;;;;;;;;;;14.36;62.98;97973.25;2068604;28;20053;-47
2023/01/27 05:19:54;;;;;;;8.80;6.13;;;;;;;14.41;63.01;97982.31;2067693;28;19948;-47
2023/01/27 05:20:58;;;;;;;;;;;;;;;14.38;63.11;97979.22;2069456;28;20110;-48
2023/01/27 05:21:59;;;;;;;9.88;5.80;;;;;;;14.42;62.90;97978.63;2069313;28;19929;-48
2023/01/27 05:24:17;;;;;;;7.85;5.30;;;;;;;14.47;62.70;97978.88;2068232;28;20061;-49
2023/01/27 05:25:17;;;;;;;9.43;6.05;;;;;;;14.49;62.59;97979.53;2068611;28;20073;-47
2023/01/27 05:26:20;;;;;;;;;;;;;;;14.39;62.88;97981.69;2070141;28;20108;-47
2023/01/27 05:27:20;;;;;;;7.88;5.80;;;;;;;14.42;62.92;97975.97;2068937;28;20533;-48
2023/01/27 05:28:21;;;;;;;;;;;;;;;14.33;63.08;97984.31;2072063;28;20108;-46
2023/01/27 05:29:22;;;;;;;9.50;6.57;;;;;;;14.36;62.90;97987.41;2069229;28;19921;-47
2023/01/27 05:30:23;;;;;;;7.03;4.90;;;;;;;14.42;62.87;97978.63;2070042;28;20107;-47
2023/01/27 05:31:25;;;;;;;;;;;;;;;14.34;62.99;97984.09;2069447;28;21494;-47